Albert, Oklahoma
Current Conditions -  °F | °C
As of 9:35 PM on Monday 22 Dec 2014 (Local Time) from KOJA Reporting Station
Clear Clear  
Wind Chill:   Ceiling: Unl
Heat Index:   Visibility: 10mi
Dew Point:   Wind: 7mph
Humidity: 70%   Direction: 310°NW
Pressure: 29.7"   Gusts: NA
Location:  35.23°N, 98.41°W
Report Text: KOJA 230335Z AUTO 31006KT 10SM CLR 05/00 A2970 RMK AO2
Loading
Personal Weather Stations






























Interactive Weather Map New forecast layout! Learn more

10-Day Weather Forecast

Advertisements
Track Severe Weather on mobile